sensor_id;sensor_type;location;lat;lon;timestamp;pressure;altitude;pressure_sealevel;temperature;humidity
23433;BME280;41331;45.412;10.992;2022-12-07T00:01:38;100777.56;;;4.09;100.00
23433;BME280;41331;45.412;10.992;2022-12-07T00:04:07;100772.84;;;4.30;100.00
23433;BME280;41331;45.412;10.992;2022-12-07T00:06:38;100769.59;;;4.38;100.00
23433;BME280;41331;45.412;10.992;2022-12-07T00:09:09;100762.81;;;4.41;100.00
23433;BME280;41331;45.412;10.992;2022-12-07T00:11:37;100763.63;;;4.41;100.00
23433;BME280;41331;45.412;10.992;2022-12-07T00:14:07;100766.69;;;4.25;100.00
23433;BME280;41331;45.412;10.992;2022-12-07T00:16:38;100765.34;;;4.27;100.00
23433;BME280;41331;45.412;10.992;2022-12-07T00:19:05;100757.25;;;4.32;100.00
23433;BME280;41331;45.412;10.992;2022-12-07T00:21:34;100753.97;;;4.35;100.00
23433;BME280;41331;45.412;10.992;2022-12-07T00:24:05;100755.00;;;4.45;100.00
23433;BME280;41331;45.412;10.992;2022-12-07T00:26:36;100753.34;;;4.49;100.00
23433;BME280;41331;45.412;10.992;2022-12-07T00:29:08;100748.53;;;4.40;100.00
23433;BME280;41331;45.412;10.992;2022-12-07T00:31:39;100745.72;;;4.16;100.00
23433;BME280;41331;45.412;10.992;2022-12-07T00:34:11;100754.13;;;4.05;100.00
23433;BME280;41331;45.412;10.992;2022-12-07T00:36:39;100754.91;;;4.10;100.00
23433;BME280;41331;45.412;10.992;2022-12-07T00:39:07;100759.53;;;4.05;100.00
23433;BME280;41331;45.412;10.992;2022-12-07T00:41:34;100765.19;;;4.03;100.00
23433;BME280;41331;45.412;10.992;2022-12-07T00:44:02;100757.91;;;4.09;100.00
23433;BME280;41331;45.412;10.992;2022-12-07T00:46:30;100761.13;;;4.06;100.00
23433;BME280;41331;45.412;10.992;2022-12-07T00:48:57;100759.50;;;4.10;100.00
23433;BME280;41331;45.412;10.992;2022-12-07T00:51:25;100749.72;;;4.24;100.00
23433;BME280;41331;45.412;10.992;2022-12-07T00:53:53;100744.97;;;4.06;100.00
23433;BME280;41331;45.412;10.992;2022-12-07T00:56:27;100754.41;;;4.03;100.00
23433;BME280;41331;45.412;10.992;2022-12-07T00:58:57;100756.31;;;4.03;100.00
23433;BME280;41331;45.412;10.992;2022-12-07T01:01:27;100756.31;;;4.03;100.00
23433;BME280;41331;45.412;10.992;2022-12-07T01:03:55;100756.00;;;4.09;100.00
23433;BME280;41331;45.412;10.992;2022-12-07T01:06:23;100750.41;;;3.90;100.00
23433;BME280;41331;45.412;10.992;2022-12-07T01:08:51;100757.69;;;3.95;100.00
23433;BME280;41331;45.412;10.992;2022-12-07T01:11:22;100758.50;;;3.90;100.00
23433;BME280;41331;45.412;10.992;2022-12-07T01:13:52;100747.53;;;3.77;100.00
23433;BME280;41331;45.412;10.992;2022-12-07T01:16:21;100757.72;;;3.85;100.00
23433;BME280;41331;45.412;10.992;2022-12-07T01:18:51;100758.03;;;3.73;100.00
23433;BME280;41331;45.412;10.992;2022-12-07T01:21:20;100759.94;;;3.68;100.00
23433;BME280;41331;45.412;10.992;2022-12-07T01:23:48;100761.88;;;3.57;100.00
23433;BME280;41331;45.412;10.992;2022-12-07T01:26:20;100763.47;;;3.63;100.00
23433;BME280;41331;45.412;10.992;2022-12-07T01:28:48;100756.72;;;3.66;100.00
23433;BME280;41331;45.412;10.992;2022-12-07T01:31:18;100756.44;;;3.67;100.00
23433;BME280;41331;45.412;10.992;2022-12-07T01:33:49;100758.03;;;3.78;100.00
23433;BME280;41331;45.412;10.992;2022-12-07T01:36:28;100755.03;;;3.85;100.00
23433;BME280;41331;45.412;10.992;2022-12-07T01:39:01;100770.66;;;3.88;100.00
23433;BME280;41331;45.412;10.992;2022-12-07T01:41:32;100765.56;;;3.76;100.00
23433;BME280;41331;45.412;10.992;2022-12-07T01:44:26;100758.31;;;3.72;100.00
23433;BME280;41331;45.412;10.992;2022-12-07T01:47:02;100760.44;;;3.75;100.00
23433;BME280;41331;45.412;10.992;2022-12-07T01:49:46;100749.44;;;3.66;100.00
23433;BME280;41331;45.412;10.992;2022-12-07T01:54:47;100753.19;;;3.70;100.00
23433;BME280;41331;45.412;10.992;2022-12-07T01:57:16;100748.91;;;3.69;100.00
23433;BME280;41331;45.412;10.992;2022-12-07T01:59:49;100758.31;;;3.72;100.00
23433;BME280;41331;45.412;10.992;2022-12-07T02:02:29;100753.75;;;3.67;100.00
23433;BME280;41331;45.412;10.992;2022-12-07T02:05:01;100743.56;;;3.54;100.00
23433;BME280;41331;45.412;10.992;2022-12-07T02:07:34;100751.63;;;3.54;100.00
23433;BME280;41331;45.412;10.992;2022-12-07T02:10:20;100750.28;;;3.51;100.00
23433;BME280;41331;45.412;10.992;2022-12-07T02:12:55;100741.69;;;3.44;100.00
23433;BME280;41331;45.412;10.992;2022-12-07T02:21:38;100731.78;;;3.29;100.00
23433;BME280;41331;45.412;10.992;2022-12-07T02:30:02;100734.19;;;3.36;100.00
23433;BME280;41331;45.412;10.992;2022-12-07T02:32:45;100732.84;;;3.33;100.00
23433;BME280;41331;45.412;10.992;2022-12-07T02:35:23;100724.50;;;3.30;100.00
23433;BME280;41331;45.412;10.992;2022-12-07T02:41:12;100733.31;;;3.56;100.00
23433;BME280;41331;45.412;10.992;2022-12-07T02:43:46;100734.41;;;3.50;100.00
23433;BME280;41331;45.412;10.992;2022-12-07T02:46:20;100718.06;;;3.26;100.00
23433;BME280;41331;45.412;10.992;2022-12-07T02:48:51;100724.25;;;3.42;100.00
23433;BME280;41331;45.412;10.992;2022-12-07T02:51:21;100725.06;;;3.37;100.00
23433;BME280;41331;45.412;10.992;2022-12-07T02:53:49;100730.41;;;3.42;100.00
23433;BME280;41331;45.412;10.992;2022-12-07T03:10:26;100724.03;;;3.07;100.00
23433;BME280;41331;45.412;10.992;2022-12-07T03:15:49;100720.53;;;3.12;100.00
23433;BME280;41331;45.412;10.992;2022-12-07T03:18:22;100718.06;;;3.26;100.00
23433;BME280;41331;45.412;10.992;2022-12-07T03:20:53;100717.25;;;3.25;100.00
23433;BME280;41331;45.412;10.992;2022-12-07T03:23:23;100725.09;;;3.17;100.00
23433;BME280;41331;45.412;10.992;2022-12-07T03:25:56;100722.13;;;3.13;100.00
23433;BME280;41331;45.412;10.992;2022-12-07T03:28:32;100711.13;;;3.04;100.00
23433;BME280;41331;45.412;10.992;2022-12-07T03:31:18;100706.56;;;2.95;100.00
23433;BME280;41331;45.412;10.992;2022-12-07T03:33:54;100702.78;;;2.91;100.00
23433;BME280;41331;45.412;10.992;2022-12-07T03:36:40;100696.56;;;3.10;100.00
23433;BME280;41331;45.412;10.992;2022-12-07T03:39:31;100691.75;;;3.07;100.00
23433;BME280;41331;45.412;10.992;2022-12-07T03:42:03;100711.38;;;3.08;100.00
23433;BME280;41331;45.412;10.992;2022-12-07T03:44:33;100698.47;;;3.00;100.00
23433;BME280;41331;45.412;10.992;2022-12-07T03:47:19;100690.16;;;3.11;100.00
23433;BME280;41331;45.412;10.992;2022-12-07T03:49:55;100685.56;;;3.12;100.00
23433;BME280;41331;45.412;10.992;2022-12-07T03:52:32;100671.06;;;2.93;100.00
23433;BME280;41331;45.412;10.992;2022-12-07T03:55:30;100689.31;;;3.06;100.00
23433;BME280;41331;45.412;10.992;2022-12-07T03:58:06;100677.22;;;3.14;100.00
23433;BME280;41331;45.412;10.992;2022-12-07T04:00:35;100678.56;;;3.11;100.00
23433;BME280;41331;45.412;10.992;2022-12-07T04:03:02;100676.16;;;3.04;100.00
23433;BME280;41331;45.412;10.992;2022-12-07T04:05:30;100675.09;;;3.00;100.00
23433;BME280;41331;45.412;10.992;2022-12-07T04:07:57;100671.03;;;3.13;100.00
23433;BME280;41331;45.412;10.992;2022-12-07T04:10:25;100660.31;;;2.98;100.00
23433;BME280;41331;45.412;10.992;2022-12-07T04:12:52;100674.81;;;3.12;100.00
23433;BME280;41331;45.412;10.992;2022-12-07T04:15:19;100674.03;;;3.01;100.00
23433;BME280;41331;45.412;10.992;2022-12-07T04:17:47;100666.47;;;3.03;100.00
23433;BME280;41331;45.412;10.992;2022-12-07T04:20:14;100668.63;;;2.91;100.00
23433;BME280;41331;45.412;10.992;2022-12-07T04:22:42;100679.94;;;3.03;100.00
23433;BME280;41331;45.412;10.992;2022-12-07T04:25:09;100670.25;;;2.97;100.00
23433;BME280;41331;45.412;10.992;2022-12-07T04:27:37;100658.44;;;2.88;100.00
23433;BME280;41331;45.412;10.992;2022-12-07T04:30:04;100676.16;;;3.04;100.00
23433;BME280;41331;45.412;10.992;2022-12-07T04:32:35;100674.56;;;3.03;100.00
23433;BME280;41331;45.412;10.992;2022-12-07T04:35:02;100662.97;;;3.08;100.00
23433;BME280;41331;45.412;10.992;2022-12-07T04:37:30;100670.25;;;2.97;100.00
23433;BME280;41331;45.412;10.992;2022-12-07T04:39:57;100661.94;;;2.89;100.00
23433;BME280;41331;45.412;10.992;2022-12-07T04:42:25;100653.56;;;3.00;100.00
23433;BME280;41331;45.412;10.992;2022-12-07T04:44:52;100671.81;;;3.24;100.00
23433;BME280;41331;45.412;10.992;2022-12-07T04:47:20;100675.59;;;3.23;100.00
23433;BME280;41331;45.412;10.992;2022-12-07T04:49:47;100675.88;;;3.11;100.00
23433;BME280;41331;45.412;10.992;2022-12-07T04:52:16;100671.31;;;3.06;100.00
23433;BME280;41331;45.412;10.992;2022-12-07T04:54:43;100655.47;;;3.00;100.00
23433;BME280;41331;45.412;10.992;2022-12-07T04:57:11;100665.69;;;3.03;100.00
23433;BME280;41331;45.412;10.992;2022-12-07T04:59:38;100667.56;;;3.02;100.00
23433;BME280;41331;45.412;10.992;2022-12-07T05:02:12;100672.16;;;2.97;100.00
23433;BME280;41331;45.412;10.992;2022-12-07T05:04:39;100681.81;;;2.98;100.00
23433;BME280;41331;45.412;10.992;2022-12-07T05:07:09;100677.75;;;3.10;100.00
23433;BME280;41331;45.412;10.992;2022-12-07T05:09:37;100682.03;;;3.22;100.00
23433;BME280;41331;45.412;10.992;2022-12-07T05:12:04;100677.22;;;3.14;100.00
23433;BME280;41331;45.412;10.992;2022-12-07T05:14:32;100673.72;;;3.08;100.00
23433;BME280;41331;45.412;10.992;2022-12-07T05:16:59;100673.72;;;3.13;100.00
23433;BME280;41331;45.412;10.992;2022-12-07T05:19:26;100670.75;;;3.09;100.00
23433;BME280;41331;45.412;10.992;2022-12-07T05:21:54;100661.06;;;3.19;100.00
23433;BME280;41331;45.412;10.992;2022-12-07T05:24:21;100664.28;;;3.16;100.00
23433;BME280;41331;45.412;10.992;2022-12-07T05:26:49;100662.16;;;3.13;100.00
23433;BME280;41331;45.412;10.992;2022-12-07T05:29:17;100664.06;;;3.07;100.00
23433;BME280;41331;45.412;10.992;2022-12-07T05:31:44;100665.41;;;2.99;100.00
23433;BME280;41331;45.412;10.992;2022-12-07T05:34:13;100662.75;;;2.89;100.00
23433;BME280;41331;45.412;10.992;2022-12-07T05:36:40;100655.47;;;2.95;100.00
23433;BME280;41331;45.412;10.992;2022-12-07T05:39:08;100662.44;;;2.96;100.00
23433;BME280;41331;45.412;10.992;2022-12-07T05:41:35;100665.94;;;2.91;100.00
23433;BME280;41331;45.412;10.992;2022-12-07T05:44:22;100669.72;;;2.90;100.00
23433;BME280;41331;45.412;10.992;2022-12-07T05:46:49;100663.25;;;2.91;100.00
23433;BME280;41331;45.412;10.992;2022-12-07T05:49:17;100666.47;;;3.03;100.00
23433;BME280;41331;45.412;10.992;2022-12-07T05:51:44;100660.84;;;3.00;100.00
23433;BME280;41331;45.412;10.992;2022-12-07T05:54:12;100651.97;;;2.99;100.00
23433;BME280;41331;45.412;10.992;2022-12-07T05:56:39;100674.25;;;3.05;100.00
23433;BME280;41331;45.412;10.992;2022-12-07T05:59:08;100674.25;;;3.10;100.00
23433;BME280;41331;45.412;10.992;2022-12-07T06:04:23;100668.34;;;3.08;100.00
23433;BME280;41331;45.412;10.992;2022-12-07T06:06:50;100668.94;;;2.84;100.00
23433;BME280;41331;45.412;10.992;2022-12-07T06:09:19;100676.19;;;2.89;100.00
23433;BME280;41331;45.412;10.992;2022-12-07T06:11:49;100671.34;;;2.71;100.00
23433;BME280;41331;45.412;10.992;2022-12-07T06:14:34;100677.00;;;2.79;100.00
23433;BME280;41331;45.412;10.992;2022-12-07T06:17:02;100678.88;;;2.74;100.00
23433;BME280;41331;45.412;10.992;2022-12-07T06:19:30;100681.84;;;2.62;100.00
23433;BME280;41331;45.412;10.992;2022-12-07T06:21:57;100680.22;;;2.56;100.00
23433;BME280;41331;45.412;10.992;2022-12-07T06:24:28;100666.25;;;2.44;100.00
23433;BME280;41331;45.412;10.992;2022-12-07T06:26:55;100676.47;;;2.57;100.00
23433;BME280;41331;45.412;10.992;2022-12-07T06:29:23;100686.16;;;2.43;100.00
23433;BME280;41331;45.412;10.992;2022-12-07T06:31:53;100677.53;;;2.46;100.00
23433;BME280;41331;45.412;10.992;2022-12-07T06:34:22;100686.16;;;2.58;100.00
23433;BME280;41331;45.412;10.992;2022-12-07T06:36:50;100693.69;;;2.61;100.00
23433;BME280;41331;45.412;10.992;2022-12-07T06:39:23;100687.22;;;2.72;100.00
23433;BME280;41331;45.412;10.992;2022-12-07T06:41:54;100694.50;;;2.62;100.00
23433;BME280;41331;45.412;10.992;2022-12-07T06:44:22;100702.00;;;2.75;100.00
23433;BME280;41331;45.412;10.992;2022-12-07T06:46:50;100706.03;;;2.72;100.00
23433;BME280;41331;45.412;10.992;2022-12-07T06:49:21;100702.56;;;2.72;100.00
23433;BME280;41331;45.412;10.992;2022-12-07T06:51:49;100707.66;;;2.63;100.00
23433;BME280;41331;45.412;10.992;2022-12-07T06:54:16;100712.47;;;2.56;100.00
23433;BME280;41331;45.412;10.992;2022-12-07T06:56:46;100702.56;;;2.56;100.00
23433;BME280;41331;45.412;10.992;2022-12-07T06:59:14;100703.06;;;2.48;100.00
23433;BME280;41331;45.412;10.992;2022-12-07T07:01:41;100702.28;;;2.53;100.00
23433;BME280;41331;45.412;10.992;2022-12-07T07:04:08;100698.22;;;2.50;100.00
23433;BME280;41331;45.412;10.992;2022-12-07T07:06:36;100707.94;;;2.67;100.00
23433;BME280;41331;45.412;10.992;2022-12-07T07:09:03;100716.25;;;2.65;100.00
23433;BME280;41331;45.412;10.992;2022-12-07T07:11:30;100703.59;;;2.71;100.00
23433;BME280;41331;45.412;10.992;2022-12-07T07:13:58;100709.78;;;2.46;100.00
23433;BME280;41331;45.412;10.992;2022-12-07T07:16:29;100707.94;;;2.56;100.00
23433;BME280;41331;45.412;10.992;2022-12-07T07:18:58;100706.56;;;2.54;100.00
23433;BME280;41331;45.412;10.992;2022-12-07T07:21:25;100715.44;;;2.70;100.00
23433;BME280;41331;45.412;10.992;2022-12-07T07:23:52;100715.72;;;2.78;100.00
23433;BME280;41331;45.412;10.992;2022-12-07T07:26:20;100717.03;;;2.45;100.00
23433;BME280;41331;45.412;10.992;2022-12-07T07:28:49;100717.31;;;2.49;100.00
23433;BME280;41331;45.412;10.992;2022-12-07T07:31:16;100720.53;;;2.56;100.00
23433;BME280;41331;45.412;10.992;2022-12-07T07:33:47;100729.66;;;2.45;100.00
23433;BME280;41331;45.412;10.992;2022-12-07T07:36:14;100722.16;;;2.47;100.00
23433;BME280;41331;45.412;10.992;2022-12-07T07:38:42;100708.72;;;2.52;100.00
23433;BME280;41331;45.412;10.992;2022-12-07T07:41:09;100722.16;;;2.62;100.00
23433;BME280;41331;45.412;10.992;2022-12-07T07:43:39;100725.09;;;2.66;100.00
23433;BME280;41331;45.412;10.992;2022-12-07T07:46:06;100731.31;;;2.81;100.00
23433;BME280;41331;45.412;10.992;2022-12-07T07:48:34;100724.56;;;2.84;100.00
23433;BME280;41331;45.412;10.992;2022-12-07T07:51:05;100720.00;;;2.95;100.00
23433;BME280;41331;45.412;10.992;2022-12-07T07:53:33;100722.44;;;3.01;100.00
23433;BME280;41331;45.412;10.992;2022-12-07T07:56:00;100735.88;;;3.01;100.00
23433;BME280;41331;45.412;10.992;2022-12-07T07:58:27;100730.75;;;3.05;100.00
23433;BME280;41331;45.412;10.992;2022-12-07T08:00:55;100732.59;;;3.20;100.00
23433;BME280;41331;45.412;10.992;2022-12-07T08:03:22;100736.13;;;3.10;100.00
23433;BME280;41331;45.412;10.992;2022-12-07T08:05:49;100729.41;;;3.13;100.00
23433;BME280;41331;45.412;10.992;2022-12-07T08:08:17;100730.72;;;3.10;100.00
23433;BME280;41331;45.412;10.992;2022-12-07T08:10:47;100736.66;;;3.17;100.00
23433;BME280;41331;45.412;10.992;2022-12-07T08:13:17;100736.59;;;3.43;100.00
23433;BME280;41331;45.412;10.992;2022-12-07T08:15:47;100731.75;;;3.40;100.00
23433;BME280;41331;45.412;10.992;2022-12-07T08:18:15;100741.72;;;3.39;100.00
23433;BME280;41331;45.412;10.992;2022-12-07T08:20:44;100739.28;;;3.48;100.00
23433;BME280;41331;45.412;10.992;2022-12-07T08:23:11;100730.13;;;3.44;100.00
23433;BME280;41331;45.412;10.992;2022-12-07T08:25:39;100738.47;;;3.47;100.00
23433;BME280;41331;45.412;10.992;2022-12-07T08:28:07;100731.22;;;3.43;100.00
23433;BME280;41331;45.412;10.992;2022-12-07T08:30:34;100732.03;;;3.43;100.00
23433;BME280;41331;45.412;10.992;2022-12-07T08:33:02;100750.84;;;3.48;100.00
23433;BME280;41331;45.412;10.992;2022-12-07T08:35:29;100734.13;;;3.51;100.00
23433;BME280;41331;45.412;10.992;2022-12-07T08:37:56;100739.53;;;3.51;100.00
23433;BME280;41331;45.412;10.992;2022-12-07T08:40:24;100748.06;;;3.74;100.00
23433;BME280;41331;45.412;10.992;2022-12-07T08:42:52;100751.78;;;3.93;100.00
23433;BME280;41331;45.412;10.992;2022-12-07T08:45:21;100749.88;;;3.99;100.00
23433;BME280;41331;45.412;10.992;2022-12-07T08:48:06;100753.09;;;3.96;100.00
23433;BME280;41331;45.412;10.992;2022-12-07T08:50:37;100761.41;;;4.04;100.00
23433;BME280;41331;45.412;10.992;2022-12-07T08:53:08;100754.97;;;4.00;100.00
23433;BME280;41331;45.412;10.992;2022-12-07T08:55:35;100760.31;;;4.05;100.00
23433;BME280;41331;45.412;10.992;2022-12-07T08:58:05;100757.38;;;4.07;100.00
23433;BME280;41331;45.412;10.992;2022-12-07T09:00:33;100745.16;;;4.20;100.00
23433;BME280;41331;45.412;10.992;2022-12-07T09:03:00;100745.13;;;4.30;100.00
23433;BME280;41331;45.412;10.992;2022-12-07T09:05:32;100746.47;;;4.32;100.00
23433;BME280;41331;45.412;10.992;2022-12-07T09:08:01;100744.03;;;4.31;100.00
23433;BME280;41331;45.412;10.992;2022-12-07T09:10:30;100734.06;;;4.26;100.00
23433;BME280;41331;45.412;10.992;2022-12-07T09:12:58;100735.41;;;4.34;100.00
23433;BME280;41331;45.412;10.992;2022-12-07T09:15:29;100737.59;;;4.27;100.00
23433;BME280;41331;45.412;10.992;2022-12-07T09:17:56;100744.81;;;4.31;100.00
23433;BME280;41331;45.412;10.992;2022-12-07T09:20:24;100747.97;;;4.49;100.00
23433;BME280;41331;45.412;10.992;2022-12-07T09:22:54;100747.94;;;4.54;100.00
23433;BME280;41331;45.412;10.992;2022-12-07T09:25:24;100742.72;;;4.67;100.00
23433;BME280;41331;45.412;10.992;2022-12-07T09:27:58;100741.75;;;5.16;100.00
23433;BME280;41331;45.412;10.992;2022-12-07T09:30:27;100739.53;;;5.24;100.00
23433;BME280;41331;45.412;10.992;2022-12-07T09:32:55;100739.25;;;5.49;100.00
23433;BME280;41331;45.412;10.992;2022-12-07T09:35:24;100739.47;;;5.29;100.00
23433;BME280;41331;45.412;10.992;2022-12-07T09:37:52;100742.53;;;5.17;100.00
23433;BME280;41331;45.412;10.992;2022-12-07T09:40:21;100740.84;;;5.26;100.00
23433;BME280;41331;45.412;10.992;2022-12-07T09:42:52;100743.13;;;5.43;100.00
23433;BME280;41331;45.412;10.992;2022-12-07T09:45:40;100743.16;;;5.38;100.00
23433;BME280;41331;45.412;10.992;2022-12-07T09:48:21;100736.59;;;5.20;100.00
23433;BME280;41331;45.412;10.992;2022-12-07T09:50:50;100729.84;;;5.23;100.00
23433;BME280;41331;45.412;10.992;2022-12-07T09:53:26;100723.69;;;5.41;100.00
23433;BME280;41331;45.412;10.992;2022-12-07T09:55:55;100729.31;;;5.44;100.00
23433;BME280;41331;45.412;10.992;2022-12-07T09:58:25;100724.31;;;5.57;100.00
23433;BME280;41331;45.412;10.992;2022-12-07T10:00:55;100707.16;;;5.48;100.00
23433;BME280;41331;45.412;10.992;2022-12-07T10:03:28;100718.78;;;5.67;100.00
23433;BME280;41331;45.412;10.992;2022-12-07T10:05:56;100712.03;;;5.69;100.00
23433;BME280;41331;45.412;10.992;2022-12-07T10:08:24;100709.13;;;5.85;100.00
23433;BME280;41331;45.412;10.992;2022-12-07T10:10:55;100716.03;;;5.96;100.00
23433;BME280;41331;45.412;10.992;2022-12-07T10:13:40;100706.94;;;6.11;100.00
23433;BME280;41331;45.412;10.992;2022-12-07T10:18:52;100698.09;;;6.43;100.00
23433;BME280;41331;45.412;10.992;2022-12-07T10:21:25;100705.28;;;6.47;100.00
23433;BME280;41331;45.412;10.992;2022-12-07T10:32:02;100703.84;;;7.34;99.91
23433;BME280;41331;45.412;10.992;2022-12-07T10:34:35;100694.19;;;7.56;98.20
23433;BME280;41331;45.412;10.992;2022-12-07T10:39:48;100679.84;;;7.69;98.43
23433;BME280;41331;45.412;10.992;2022-12-07T10:42:21;100689.56;;;7.84;96.59
23433;BME280;41331;45.412;10.992;2022-12-07T10:45:06;100681.63;;;7.87;96.04
23433;BME280;41331;45.412;10.992;2022-12-07T10:58:45;100680.31;;;7.98;98.21
23433;BME280;41331;45.412;10.992;2022-12-07T11:04:43;100667.72;;;7.39;100.00
23433;BME280;41331;45.412;10.992;2022-12-07T11:08:09;100671.72;;;7.55;98.74
23433;BME280;41331;45.412;10.992;2022-12-07T11:11:16;100675.84;;;7.66;100.00
23433;BME280;41331;45.412;10.992;2022-12-07T11:13:54;100669.22;;;7.31;100.00
23433;BME280;41331;45.412;10.992;2022-12-07T11:16:39;100668.00;;;7.37;100.00
23433;BME280;41331;45.412;10.992;2022-12-07T11:22:31;100667.00;;;7.47;100.00
23433;BME280;41331;45.412;10.992;2022-12-07T11:25:17;100653.78;;;7.18;100.00
23433;BME280;41331;45.412;10.992;2022-12-07T11:28:33;100655.00;;;7.25;100.00
23433;BME280;41331;45.412;10.992;2022-12-07T11:33:48;100650.69;;;7.38;100.00
23433;BME280;41331;45.412;10.992;2022-12-07T11:39:02;100640.72;;;7.47;100.00
23433;BME280;41331;45.412;10.992;2022-12-07T11:41:35;100643.31;;;7.66;98.64
23433;BME280;41331;45.412;10.992;2022-12-07T11:44:40;100634.63;;;7.92;97.56
23433;BME280;41331;45.412;10.992;2022-12-07T11:47:23;100632.91;;;7.96;98.34
23433;BME280;41331;45.412;10.992;2022-12-07T11:54:58;100620.38;;;8.00;97.59
23433;BME280;41331;45.412;10.992;2022-12-07T11:57:38;100626.72;;;8.18;97.11
23433;BME280;41331;45.412;10.992;2022-12-07T12:00:16;100625.16;;;8.03;96.53
23433;BME280;41331;45.412;10.992;2022-12-07T12:02:49;100622.84;;;8.10;97.68
23433;BME280;41331;45.412;10.992;2022-12-07T12:05:24;100616.75;;;8.27;97.46
23433;BME280;41331;45.412;10.992;2022-12-07T12:08:15;100622.69;;;8.29;96.95
23433;BME280;41331;45.412;10.992;2022-12-07T12:22:39;100594.88;;;8.01;92.65
23433;BME280;41331;45.412;10.992;2022-12-07T12:25:26;100593.38;;;8.17;92.96
23433;BME280;41331;45.412;10.992;2022-12-07T12:27:59;100597.16;;;8.30;93.35
23433;BME280;41331;45.412;10.992;2022-12-07T12:33:27;100594.19;;;8.18;96.79
23433;BME280;41331;45.412;10.992;2022-12-07T12:38:48;100588.50;;;8.28;95.75
23433;BME280;41331;45.412;10.992;2022-12-07T12:51:56;100577.25;;;7.90;100.00
23433;BME280;41331;45.412;10.992;2022-12-07T12:54:27;100587.03;;;7.99;100.00
23433;BME280;41331;45.412;10.992;2022-12-07T12:59:30;100584.94;;;7.96;100.00
23433;BME280;41331;45.412;10.992;2022-12-07T13:15:42;100568.69;;;7.96;100.00
23433;BME280;41331;45.412;10.992;2022-12-07T13:20:57;100559.66;;;7.87;100.00
23433;BME280;41331;45.412;10.992;2022-12-07T13:29:11;100560.78;;;7.64;100.00
23433;BME280;41331;45.412;10.992;2022-12-07T13:31:45;100555.75;;;7.57;100.00
23433;BME280;41331;45.412;10.992;2022-12-07T13:34:38;100562.69;;;7.63;100.00
23433;BME280;41331;45.412;10.992;2022-12-07T13:37:10;100561.97;;;7.58;100.00
23433;BME280;41331;45.412;10.992;2022-12-07T13:40:00;100557.88;;;7.60;100.00
23433;BME280;41331;45.412;10.992;2022-12-07T13:42:30;100559.97;;;7.63;100.00
23433;BME280;41331;45.412;10.992;2022-12-07T13:45:00;100552.56;;;7.55;100.00
23433;BME280;41331;45.412;10.992;2022-12-07T13:47:44;100548.13;;;7.59;100.00
23433;BME280;41331;45.412;10.992;2022-12-07T13:50:33;100542.88;;;7.63;100.00
23433;BME280;41331;45.412;10.992;2022-12-07T13:53:01;100543.50;;;7.73;100.00
23433;BME280;41331;45.412;10.992;2022-12-07T13:55:29;100543.16;;;7.75;100.00
23433;BME280;41331;45.412;10.992;2022-12-07T13:57:57;100535.66;;;7.72;100.00
23433;BME280;41331;45.412;10.992;2022-12-07T14:00:26;100540.16;;;7.76;100.00
23433;BME280;41331;45.412;10.992;2022-12-07T14:03:32;100548.94;;;7.82;100.00
23433;BME280;41331;45.412;10.992;2022-12-07T14:06:22;100542.44;;;7.83;100.00
23433;BME280;41331;45.412;10.992;2022-12-07T14:09:27;100553.50;;;7.73;100.00
23433;BME280;41331;45.412;10.992;2022-12-07T14:11:57;100552.09;;;7.75;100.00
23433;BME280;41331;45.412;10.992;2022-12-07T14:14:30;100546.91;;;7.65;100.00
23433;BME280;41331;45.412;10.992;2022-12-07T14:17:17;100538.97;;;7.69;100.00
23433;BME280;41331;45.412;10.992;2022-12-07T14:19:50;100546.78;;;7.70;100.00
23433;BME280;41331;45.412;10.992;2022-12-07T14:22:37;100544.00;;;7.62;100.00
23433;BME280;41331;45.412;10.992;2022-12-07T14:25:25;100543.53;;;7.60;100.00
23433;BME280;41331;45.412;10.992;2022-12-07T14:27:59;100545.13;;;7.61;100.00
23433;BME280;41331;45.412;10.992;2022-12-07T14:30:32;100552.25;;;7.57;100.00
23433;BME280;41331;45.412;10.992;2022-12-07T14:33:04;100544.47;;;7.41;100.00
23433;BME280;41331;45.412;10.992;2022-12-07T14:35:35;100553.44;;;7.28;100.00
23433;BME280;41331;45.412;10.992;2022-12-07T14:38:04;100554.72;;;7.17;100.00
23433;BME280;41331;45.412;10.992;2022-12-07T14:40:32;100552.22;;;7.07;100.00
23433;BME280;41331;45.412;10.992;2022-12-07T14:43:09;100552.63;;;7.00;100.00
23433;BME280;41331;45.412;10.992;2022-12-07T14:45:38;100555.75;;;6.93;100.00
23433;BME280;41331;45.412;10.992;2022-12-07T14:48:12;100561.38;;;6.83;100.00
23433;BME280;41331;45.412;10.992;2022-12-07T14:51:00;100560.63;;;6.78;100.00
23433;BME280;41331;45.412;10.992;2022-12-07T14:53:50;100562.34;;;6.73;100.00
23433;BME280;41331;45.412;10.992;2022-12-07T14:56:24;100561.16;;;6.80;100.00
23433;BME280;41331;45.412;10.992;2022-12-07T14:58:52;100559.53;;;6.65;100.00
23433;BME280;41331;45.412;10.992;2022-12-07T15:01:19;100567.94;;;6.63;100.00
23433;BME280;41331;45.412;10.992;2022-12-07T15:03:46;100569.91;;;6.44;100.00
23433;BME280;41331;45.412;10.992;2022-12-07T15:06:16;100572.44;;;6.54;100.00
23433;BME280;41331;45.412;10.992;2022-12-07T15:08:47;100573.19;;;6.41;100.00
23433;BME280;41331;45.412;10.992;2022-12-07T15:11:15;100571.38;;;6.36;100.00
23433;BME280;41331;45.412;10.992;2022-12-07T15:13:43;100576.47;;;6.24;100.00
23433;BME280;41331;45.412;10.992;2022-12-07T15:16:29;100576.81;;;6.17;100.00
23433;BME280;41331;45.412;10.992;2022-12-07T15:19:19;100589.44;;;6.08;100.00